Terminal Aerodrome Forecast
Issued by NWS Albany, NY

Home | Current Version | Previous Version | Text Only | Print | Product List | Glossary On
Versions: 1 2 3 4 5 6 7 8 9 10 11 12 13 14 15 16 17 18 19 20 21 22 23 24 25 26 27
669
FTUS41 KALY 191740
TAFPOU
TAF
KPOU 191740Z 1918/2018 26007KT P6SM SCT045 BKN070
     FM200000 25005KT P6SM SCT045 BKN080
     FM200300 VRB03KT P6SM VCSH BKN080 OVC150
     FM200800 00000KT 6SM BR FEW002 SCT250
     FM201300 29006KT P6SM BKN250=

USA.gov is the U.S. government's official web portal to all federal, state and local government web resources and services.